Time;durP1;ratioP1;P1;durP2;ratioP2;P2;SDS_P1;SDS_P2;PMS_P1;PMS_P2;Temp;Humidity;BMP_temperature;BMP_pressure;BME280_temperature;BME280_humidity;BME280_pressure;Samples;Min_cycle;Max_cycle;Signal;HPM_P1;HPM_P2
2024/01/06 00:00:41;;;;;;;26.80;12.52;;;;;;;;;;5822328;28;20533;-79
2024/01/06 00:03:32;;;;;;;24.83;7.55;;;;;;;;;;5839191;28;20046;-79
2024/01/06 00:06:24;;;;;;;10.85;6.10;;;;;;;;;;5822017;28;20395;-79
2024/01/06 00:09:15;;;;;;;16.83;9.50;;;;;;;;;;5838049;28;20069;-79
2024/01/06 00:12:06;;;;;;;14.88;8.45;;;;;;;;;;5839347;28;20511;-79
2024/01/06 00:14:57;;;;;;;12.25;7.90;;;;;;;;;;5854612;28;20081;-79
2024/01/06 00:17:48;;;;;;;14.27;6.65;;;;;;;;;;5837805;28;20427;-79
2024/01/06 00:20:39;;;;;;;13.57;7.38;;;;;;;;;;5837916;28;20512;-79
2024/01/06 00:23:29;;;;;;;15.32;8.02;;;;;;;;;;5837817;28;20046;-79
2024/01/06 00:26:20;;;;;;;12.95;5.38;;;;;;;;;;5821539;28;20046;-79
2024/01/06 00:29:11;;;;;;;12.73;9.23;;;;;;;;;;5839087;28;20061;-79
2024/01/06 00:32:02;;;;;;;14.27;7.38;;;;;;;;;;5821551;28;20061;-79
2024/01/06 00:34:54;;;;;;;14.65;6.35;;;;;;;;;;5837937;28;20041;-79
2024/01/06 00:37:45;;;;;;;20.80;9.90;;;;;;;;;;5853958;28;20056;-79
2024/01/06 00:40:35;;;;;;;21.88;7.47;;;;;;;;;;5821565;28;20062;-79
2024/01/06 00:43:26;;;;;;;11.02;6.80;;;;;;;;;;5837529;28;20516;-79
2024/01/06 00:46:17;;;;;;;16.33;7.10;;;;;;;;;;5837623;28;20050;-79
2024/01/06 00:49:08;;;;;;;13.70;7.10;;;;;;;;;;5822357;28;20072;-79
2024/01/06 00:51:59;;;;;;;16.30;7.53;;;;;;;;;;5842472;28;20076;-79
2024/01/06 00:54:49;;;;;;;13.25;7.30;;;;;;;;;;5832682;28;20104;-79
2024/01/06 00:57:40;;;;;;;12.52;8.70;;;;;;;;;;5866461;28;20049;-79
2024/01/06 01:00:31;;;;;;;14.82;7.45;;;;;;;;;;5864826;28;20049;-79
2024/01/06 01:03:22;;;;;;;23.85;11.48;;;;;;;;;;5852671;28;20111;-79
2024/01/06 01:06:13;;;;;;;15.88;8.07;;;;;;;;;;5864826;28;20136;-79
2024/01/06 01:09:04;;;;;;;9.18;6.25;;;;;;;;;;5866004;28;20053;-79
2024/01/06 01:11:55;;;;;;;11.88;6.88;;;;;;;;;;5865249;28;20515;-79
2024/01/06 01:14:45;;;;;;;20.30;10.05;;;;;;;;;;5864613;28;20045;-79
2024/01/06 01:17:37;;;;;;;8.75;4.80;;;;;;;;;;5865583;28;20484;-79
2024/01/06 01:20:28;;;;;;;16.70;6.65;;;;;;;;;;5864485;28;20084;-79
2024/01/06 01:23:18;;;;;;;16.90;9.15;;;;;;;;;;5865816;28;20052;-79
2024/01/06 01:26:09;;;;;;;19.23;9.88;;;;;;;;;;5864385;28;20642;-79
2024/01/06 01:29:00;;;;;;;12.48;6.88;;;;;;;;;;5864711;28;20049;-79
2024/01/06 01:31:51;;;;;;;24.25;10.77;;;;;;;;;;5864387;28;20396;-79
2024/01/06 01:34:42;;;;;;;11.88;6.47;;;;;;;;;;5825839;28;20069;-79
2024/01/06 01:37:32;;;;;;;10.63;5.10;;;;;;;;;;5824815;28;20053;-79
2024/01/06 01:40:23;;;;;;;15.07;6.50;;;;;;;;;;5824697;28;20046;-79
2024/01/06 01:43:18;;;;;;;14.93;7.43;;;;;;;;;;5842227;28;20054;-79
2024/01/06 01:46:09;;;;;;;8.55;4.80;;;;;;;;;;5841122;28;20054;-79
2024/01/06 01:49:01;;;;;;;12.18;6.72;;;;;;;;;;5840918;28;20046;-79
2024/01/06 01:51:52;;;;;;;7.20;5.10;;;;;;;;;;5864026;28;20492;-79
2024/01/06 01:54:45;;;;;;;17.50;4.82;;;;;;;;;;5863657;28;20528;-79
2024/01/06 01:57:36;;;;;;;12.98;6.47;;;;;;;;;;5863831;28;20041;-79
2024/01/06 02:00:28;;;;;;;26.33;10.55;;;;;;;;;;5863719;28;20103;-79
2024/01/06 02:03:19;;;;;;;25.75;12.80;;;;;;;;;;5863354;28;20428;-79
2024/01/06 02:06:11;;;;;;;19.27;8.85;;;;;;;;;;5880225;28;20060;-79
2024/01/06 02:09:02;;;;;;;12.93;6.55;;;;;;;;;;5863230;28;20041;-79
2024/01/06 02:11:53;;;;;;;7.68;6.03;;;;;;;;;;5880028;28;20045;-79
2024/01/06 02:14:44;;;;;;;13.75;5.68;;;;;;;;;;5863186;28;20072;-79
2024/01/06 02:17:34;;;;;;;16.25;8.82;;;;;;;;;;5863349;28;20049;-79
2024/01/06 02:20:27;;;;;;;13.30;7.78;;;;;;;;;;5863364;28;20225;-79
2024/01/06 02:23:17;;;;;;;14.45;7.00;;;;;;;;;;5863144;28;20053;-79
2024/01/06 02:26:11;;;;;;;18.92;11.35;;;;;;;;;;5863066;28;20456;-79
2024/01/06 02:29:02;;;;;;;27.67;10.88;;;;;;;;;;5862892;28;20045;-79
2024/01/06 02:31:53;;;;;;;18.65;11.60;;;;;;;;;;5863297;28;20057;-79
2024/01/06 02:34:43;;;;;;;17.05;8.57;;;;;;;;;;5824293;28;20093;-79
2024/01/06 02:37:34;;;;;;;10.82;5.45;;;;;;;;;;5823639;28;20046;-79
2024/01/06 02:40:25;;;;;;;22.58;13.60;;;;;;;;;;5840848;28;20050;-79
2024/01/06 02:43:16;;;;;;;9.65;5.85;;;;;;;;;;5839617;28;20056;-79
2024/01/06 02:46:07;;;;;;;15.18;8.15;;;;;;;;;;5839516;28;20062;-79
2024/01/06 02:48:58;;;;;;;13.88;10.68;;;;;;;;;;5839859;28;20053;-80
2024/01/06 02:51:48;;;;;;;13.15;8.10;;;;;;;;;;5839522;28;20062;-80
2024/01/06 02:54:39;;;;;;;7.13;6.25;;;;;;;;;;5840750;28;20384;-80
2024/01/06 02:57:31;;;;;;;20.58;5.68;;;;;;;;;;5839468;28;20044;-80
2024/01/06 03:00:21;;;;;;;18.75;6.72;;;;;;;;;;5839138;28;20077;-80
2024/01/06 03:03:12;;;;;;;18.15;8.40;;;;;;;;;;5839186;28;20185;-80
2024/01/06 03:06:03;;;;;;;9.23;6.97;;;;;;;;;;5855439;28;20786;-80
2024/01/06 03:08:54;;;;;;;14.32;5.88;;;;;;;;;;5839718;28;20092;-80
2024/01/06 03:11:45;;;;;;;13.40;5.25;;;;;;;;;;5838704;28;20519;-80
2024/01/06 03:14:36;;;;;;;13.60;7.63;;;;;;;;;;5855399;28;20037;-80
2024/01/06 03:17:28;;;;;;;14.15;6.05;;;;;;;;;;5839032;28;20412;-80
2024/01/06 03:20:19;;;;;;;24.95;12.80;;;;;;;;;;5838921;28;20045;-80
2024/01/06 03:23:10;;;;;;;26.38;12.23;;;;;;;;;;5838890;28;20062;-79
2024/01/06 03:26:06;;;;;;;12.70;7.47;;;;;;;;;;5840013;28;20049;-80
2024/01/06 03:28:58;;;;;;;20.27;11.18;;;;;;;;;;5839222;28;20389;-80
2024/01/06 03:31:49;;;;;;;16.08;10.90;;;;;;;;;;5838798;28;20084;-79
2024/01/06 03:34:41;;;;;;;12.32;7.20;;;;;;;;;;5838795;28;20099;-79
2024/01/06 03:37:33;;;;;;;9.93;6.90;;;;;;;;;;5822458;28;20042;-79
2024/01/06 03:40:24;;;;;;;13.05;8.93;;;;;;;;;;5838454;28;20048;-79
2024/01/06 03:43:15;;;;;;;12.30;9.93;;;;;;;;;;5838461;28;20053;-79
2024/01/06 03:46:05;;;;;;;20.85;10.68;;;;;;;;;;5854752;28;20064;-80
2024/01/06 03:48:56;;;;;;;15.30;9.30;;;;;;;;;;5840112;28;20516;-79
2024/01/06 03:51:47;;;;;;;10.80;6.65;;;;;;;;;;5838437;28;20042;-79
2024/01/06 03:54:38;;;;;;;13.73;6.88;;;;;;;;;;5838607;28;20427;-79
2024/01/06 03:57:29;;;;;;;10.27;4.65;;;;;;;;;;5838170;28;20077;-79
2024/01/06 04:00:20;;;;;;;11.18;6.38;;;;;;;;;;5838335;28;20475;-79
2024/01/06 04:03:10;;;;;;;12.85;7.90;;;;;;;;;;5839472;28;20057;-79
2024/01/06 04:06:02;;;;;;;15.20;6.00;;;;;;;;;;5838174;28;20136;-80
2024/01/06 04:08:54;;;;;;;9.27;4.55;;;;;;;;;;5838358;28;20042;-80
2024/01/06 04:11:45;;;;;;;14.20;5.80;;;;;;;;;;5822014;28;20045;-79
2024/01/06 04:14:36;;;;;;;8.45;6.38;;;;;;;;;;5838110;28;20057;-80
2024/01/06 04:17:27;;;;;;;11.95;5.90;;;;;;;;;;5839421;28;20054;-80
2024/01/06 04:20:18;;;;;;;11.82;6.28;;;;;;;;;;5837942;28;20054;-79
2024/01/06 04:23:09;;;;;;;9.02;5.57;;;;;;;;;;5854311;28;20046;-79
2024/01/06 04:26:00;;;;;;;8.10;4.43;;;;;;;;;;5842379;28;20168;-80
2024/01/06 04:28:50;;;;;;;9.07;5.90;;;;;;;;;;5859101;28;20045;-80
2024/01/06 04:31:41;;;;;;;10.32;6.88;;;;;;;;;;5827283;28;20050;-80
2024/01/06 04:34:33;;;;;;;9.02;6.20;;;;;;;;;;5842224;28;20129;-80
2024/01/06 04:37:23;;;;;;;12.60;8.15;;;;;;;;;;5842350;28;20511;-80
2024/01/06 04:40:14;;;;;;;15.15;7.15;;;;;;;;;;5842470;28;20072;-80
2024/01/06 04:43:05;;;;;;;7.38;5.00;;;;;;;;;;5858628;28;20053;-80
2024/01/06 04:45:57;;;;;;;9.25;4.75;;;;;;;;;;5844192;28;20049;-80
2024/01/06 04:48:48;;;;;;;14.00;6.63;;;;;;;;;;5842274;28;20057;-80
2024/01/06 04:51:39;;;;;;;15.52;6.97;;;;;;;;;;5842074;28;20045;-80
2024/01/06 04:54:30;;;;;;;10.38;7.95;;;;;;;;;;5841854;28;20049;-80
2024/01/06 04:57:20;;;;;;;7.60;6.85;;;;;;;;;;5841803;28;20050;-80
2024/01/06 05:00:12;;;;;;;8.60;5.05;;;;;;;;;;5825671;28;20049;-80
2024/01/06 05:03:04;;;;;;;6.70;4.95;;;;;;;;;;5843095;28;20088;-80
2024/01/06 05:05:54;;;;;;;10.73;6.40;;;;;;;;;;5842194;28;20045;-80
2024/01/06 05:08:45;;;;;;;9.90;5.88;;;;;;;;;;5843326;28;20041;-80
2024/01/06 05:11:36;;;;;;;11.60;7.40;;;;;;;;;;5842938;28;20467;-80
2024/01/06 05:14:27;;;;;;;10.15;6.22;;;;;;;;;;5841619;28;20050;-80
2024/01/06 05:17:17;;;;;;;7.13;4.70;;;;;;;;;;5842815;28;20248;-80
2024/01/06 05:20:09;;;;;;;10.57;4.55;;;;;;;;;;5841499;28;20123;-80
2024/01/06 05:22:59;;;;;;;9.02;5.30;;;;;;;;;;5841659;28;20164;-80
2024/01/06 05:25:50;;;;;;;15.68;5.65;;;;;;;;;;5842907;28;20065;-81
2024/01/06 05:28:41;;;;;;;7.90;6.25;;;;;;;;;;5824923;28;20050;-80
2024/01/06 05:31:32;;;;;;;11.50;5.57;;;;;;;;;;5841106;28;20057;-80
2024/01/06 05:34:22;;;;;;;10.05;4.88;;;;;;;;;;5840983;28;20244;-80
2024/01/06 05:37:13;;;;;;;8.65;3.70;;;;;;;;;;5857276;28;20182;-80
2024/01/06 05:40:06;;;;;;;6.97;3.67;;;;;;;;;;5841162;28;20072;-80
2024/01/06 05:42:57;;;;;;;14.20;7.20;;;;;;;;;;5825123;28;20054;-80
2024/01/06 05:45:48;;;;;;;6.60;5.18;;;;;;;;;;5841070;28;20060;-80
2024/01/06 05:48:40;;;;;;;13.80;4.55;;;;;;;;;;5842281;28;20050;-80
2024/01/06 05:51:31;;;;;;;7.80;5.18;;;;;;;;;;5840698;28;20121;-80
2024/01/06 05:54:22;;;;;;;6.43;4.28;;;;;;;;;;5840693;28;20050;-80
2024/01/06 05:57:13;;;;;;;5.57;3.75;;;;;;;;;;5842168;28;20136;-80
2024/01/06 06:00:08;;;;;;;6.00;4.88;;;;;;;;;;5840513;28;20124;-80
2024/01/06 06:02:59;;;;;;;11.07;6.18;;;;;;;;;;5857271;28;20057;-81
2024/01/06 06:05:50;;;;;;;8.57;4.45;;;;;;;;;;5842074;28;20037;-81
2024/01/06 06:08:43;;;;;;;9.68;5.32;;;;;;;;;;5840505;28;20388;-81
2024/01/06 06:11:34;;;;;;;7.32;3.75;;;;;;;;;;5840411;28;20041;-81
2024/01/06 06:14:24;;;;;;;13.35;5.28;;;;;;;;;;5841636;28;20664;-81
2024/01/06 06:17:19;;;;;;;4.90;3.38;;;;;;;;;;5856231;28;20049;-81
2024/01/06 06:20:10;;;;;;;7.60;4.97;;;;;;;;;;5840083;28;20135;-81
2024/01/06 06:23:01;;;;;;;8.70;5.82;;;;;;;;;;5840079;28;20061;-80
2024/01/06 06:25:51;;;;;;;8.88;4.82;;;;;;;;;;5840558;28;20538;-81
2024/01/06 06:28:42;;;;;;;13.13;5.15;;;;;;;;;;5840092;28;20393;-81
2024/01/06 06:31:33;;;;;;;9.73;4.78;;;;;;;;;;5839656;28;20042;-81
2024/01/06 06:34:24;;;;;;;6.55;5.35;;;;;;;;;;5839804;28;20046;-81
2024/01/06 06:37:15;;;;;;;6.40;4.55;;;;;;;;;;5840044;28;20496;-81
2024/01/06 06:40:07;;;;;;;7.25;4.35;;;;;;;;;;5841211;28;20046;-81
2024/01/06 06:42:58;;;;;;;5.28;4.10;;;;;;;;;;5841480;28;20049;-81
2024/01/06 06:45:49;;;;;;;6.97;4.43;;;;;;;;;;5839820;28;20042;-81
2024/01/06 06:48:40;;;;;;;7.65;5.47;;;;;;;;;;5838883;28;20822;-81
2024/01/06 06:51:31;;;;;;;11.13;4.47;;;;;;;;;;5840768;28;20073;-81
2024/01/06 06:54:22;;;;;;;6.18;3.25;;;;;;;;;;5840900;28;20463;-82
2024/01/06 06:57:12;;;;;;;8.65;5.07;;;;;;;;;;5839470;28;20069;-82
2024/01/06 07:00:04;;;;;;;8.38;5.15;;;;;;;;;;5840614;28;20068;-82
2024/01/06 07:02:55;;;;;;;16.30;5.78;;;;;;;;;;5841008;28;20504;-82
2024/01/06 07:05:46;;;;;;;5.90;4.03;;;;;;;;;;5839311;28;20076;-82
2024/01/06 07:08:38;;;;;;;10.13;6.57;;;;;;;;;;5839154;28;20045;-82
2024/01/06 07:11:29;;;;;;;7.45;4.95;;;;;;;;;;5840181;28;20479;-82
2024/01/06 07:14:20;;;;;;;7.78;5.72;;;;;;;;;;5838987;28;20459;-82
2024/01/06 07:17:10;;;;;;;8.65;6.00;;;;;;;;;;5822705;28;20058;-82
2024/01/06 07:20:02;;;;;;;4.78;4.13;;;;;;;;;;5840286;28;20072;-80
2024/01/06 07:22:53;;;;;;;5.95;4.50;;;;;;;;;;5839121;28;20185;-82
2024/01/06 07:25:44;;;;;;;7.13;3.63;;;;;;;;;;5840258;28;20044;-82
2024/01/06 07:28:35;;;;;;;8.63;4.95;;;;;;;;;;5822501;28;20049;-82
2024/01/06 07:31:25;;;;;;;10.55;6.25;;;;;;;;;;5838593;28;20068;-82
2024/01/06 07:34:16;;;;;;;6.07;5.45;;;;;;;;;;5839999;28;20452;-82
2024/01/06 07:37:07;;;;;;;8.02;5.28;;;;;;;;;;5838714;28;20060;-82
2024/01/06 07:39:58;;;;;;;112.07;64.97;;;;;;;;;;5838949;28;20054;-82
2024/01/06 07:42:49;;;;;;;55.92;29.52;;;;;;;;;;5838614;28;20132;-82
2024/01/06 07:45:41;;;;;;;22.30;14.70;;;;;;;;;;5838543;28;20423;-82
2024/01/06 07:48:32;;;;;;;10.10;8.25;;;;;;;;;;5838377;28;20411;-82
2024/01/06 07:51:23;;;;;;;8.75;5.65;;;;;;;;;;5841335;28;20133;-82
2024/01/06 07:54:14;;;;;;;8.68;5.93;;;;;;;;;;5861324;28;20060;-82
2024/01/06 07:57:05;;;;;;;19.80;6.38;;;;;;;;;;5877639;28;20128;-83
2024/01/06 07:59:56;;;;;;;9.38;6.10;;;;;;;;;;5861570;28;20053;-83
2024/01/06 08:02:46;;;;;;;8.55;4.50;;;;;;;;;;5861235;28;20052;-83
2024/01/06 08:05:37;;;;;;;5.75;4.22;;;;;;;;;;5862387;28;20046;-83
2024/01/06 08:08:28;;;;;;;17.80;6.80;;;;;;;;;;5860875;28;20041;-84
2024/01/06 08:11:19;;;;;;;6.88;5.93;;;;;;;;;;5860939;28;20049;-84
2024/01/06 08:14:10;;;;;;;9.88;7.20;;;;;;;;;;5860983;28;20408;-84
2024/01/06 08:17:01;;;;;;;8.32;5.47;;;;;;;;;;5860945;28;20049;-83
2024/01/06 08:19:52;;;;;;;13.40;7.60;;;;;;;;;;5861325;28;20503;-84
2024/01/06 08:22:43;;;;;;;8.32;5.97;;;;;;;;;;5862212;28;20499;-84
2024/01/06 08:25:34;;;;;;;12.65;6.65;;;;;;;;;;5860993;28;20042;-84
2024/01/06 08:28:25;;;;;;;12.88;5.20;;;;;;;;;;5877340;28;20069;-84
2024/01/06 08:31:16;;;;;;;11.00;5.78;;;;;;;;;;5860686;28;20052;-84
2024/01/06 08:34:07;;;;;;;8.30;5.05;;;;;;;;;;5861990;28;20551;-84
2024/01/06 08:36:59;;;;;;;11.23;7.43;;;;;;;;;;5861177;28;20054;-85
2024/01/06 08:39:50;;;;;;;9.85;6.13;;;;;;;;;;5862205;28;20426;-85
2024/01/06 08:42:41;;;;;;;9.25;6.15;;;;;;;;;;5861784;28;20055;-85
2024/01/06 08:45:31;;;;;;;12.90;7.65;;;;;;;;;;5823791;28;20484;-86
2024/01/06 08:48:22;;;;;;;10.57;8.05;;;;;;;;;;5837539;28;20053;-87
2024/01/06 08:51:13;;;;;;;10.73;8.15;;;;;;;;;;5837785;28;20046;-86
2024/01/06 08:54:05;;;;;;;13.73;10.43;;;;;;;;;;5821426;28;20050;-86
2024/01/06 08:56:56;;;;;;;25.98;11.60;;;;;;;;;;5854306;28;20054;-87
2024/01/06 08:59:47;;;;;;;28.13;16.90;;;;;;;;;;5837555;28;20092;-87
2024/01/06 09:02:38;;;;;;;22.70;15.45;;;;;;;;;;5853590;28;20048;-87
2024/01/06 09:05:29;;;;;;;38.33;19.98;;;;;;;;;;5837526;28;20050;-87
2024/01/06 09:08:20;;;;;;;68.18;26.00;;;;;;;;;;5837274;28;20123;-87
2024/01/06 09:11:10;;;;;;;39.88;22.08;;;;;;;;;;5839814;28;20077;-87
2024/01/06 09:14:02;;;;;;;16.67;10.07;;;;;;;;;;5841530;28;20068;-87
2024/01/06 09:16:52;;;;;;;19.55;12.65;;;;;;;;;;5842086;28;20128;-87
2024/01/06 09:19:43;;;;;;;33.42;18.23;;;;;;;;;;5842768;28;20065;-87
2024/01/06 09:22:35;;;;;;;23.15;14.95;;;;;;;;;;5843030;28;20048;-86
2024/01/06 09:25:25;;;;;;;13.00;8.45;;;;;;;;;;5843776;28;20121;-86
2024/01/06 09:28:16;;;;;;;12.45;6.85;;;;;;;;;;5842616;28;20080;-86
2024/01/06 09:31:07;;;;;;;15.40;9.05;;;;;;;;;;5841205;28;20046;-85
2024/01/06 09:34:02;;;;;;;14.52;10.38;;;;;;;;;;5841518;28;20053;-87
2024/01/06 09:36:53;;;;;;;15.35;8.40;;;;;;;;;;5841256;28;20384;-86
2024/01/06 09:39:45;;;;;;;13.77;9.25;;;;;;;;;;5867114;28;20048;-86
2024/01/06 09:42:35;;;;;;;24.50;17.98;;;;;;;;;;5869979;28;20156;-87
2024/01/06 09:45:26;;;;;;;14.20;9.88;;;;;;;;;;5869003;28;20168;-87
2024/01/06 09:48:17;;;;;;;10.57;9.07;;;;;;;;;;5869844;28;20053;-87
2024/01/06 09:51:12;;;;;;;20.30;9.10;;;;;;;;;;5869135;28;20041;-87
2024/01/06 09:54:09;;;;;;;12.85;9.18;;;;;;;;;;5885596;28;20076;-87
2024/01/06 09:57:03;;;;;;;13.60;10.63;;;;;;;;;;5885037;28;20045;-87
2024/01/06 09:59:55;;;;;;;16.30;8.77;;;;;;;;;;5852308;28;20049;-87
2024/01/06 10:02:51;;;;;;;12.55;8.18;;;;;;;;;;5829214;28;20056;-86
2024/01/06 10:05:41;;;;;;;10.82;9.18;;;;;;;;;;5843831;28;20061;-87
2024/01/06 10:08:35;;;;;;;13.93;8.90;;;;;;;;;;5840855;28;20052;-87
2024/01/06 10:11:26;;;;;;;15.52;10.02;;;;;;;;;;5843159;28;20038;-87
2024/01/06 10:14:17;;;;;;;13.60;9.02;;;;;;;;;;5844191;28;20049;-88
2024/01/06 10:17:08;;;;;;;23.15;12.80;;;;;;;;;;5842222;28;20054;-88
2024/01/06 10:20:00;;;;;;;18.27;11.55;;;;;;;;;;5857986;28;20511;-88
2024/01/06 10:22:51;;;;;;;22.23;12.55;;;;;;;;;;5880623;28;20038;-88
2024/01/06 10:25:42;;;;;;;16.23;12.45;;;;;;;;;;5868850;28;20474;-88
2024/01/06 10:28:33;;;;;;;13.52;8.20;;;;;;;;;;5867165;28;20051;-88
2024/01/06 10:31:26;;;;;;;14.85;9.57;;;;;;;;;;5866560;28;20041;-88
2024/01/06 10:34:17;;;;;;;19.15;11.48;;;;;;;;;;5868010;28;20049;-88
2024/01/06 10:37:08;;;;;;;17.33;8.68;;;;;;;;;;5865786;28;20047;-87
2024/01/06 10:40:16;;;;;;;14.10;8.75;;;;;;;;;;5865107;28;20053;-88
2024/01/06 10:43:09;;;;;;;40.45;22.45;;;;;;;;;;5840486;28;20191;-87
2024/01/06 10:46:04;;;;;;;18.85;9.77;;;;;;;;;;5840522;28;20460;-88
2024/01/06 10:48:58;;;;;;;13.02;7.63;;;;;;;;;;5839831;28;20488;-88
2024/01/06 10:51:50;;;;;;;11.75;7.88;;;;;;;;;;5840811;28;20042;-88
2024/01/06 10:54:42;;;;;;;8.98;7.53;;;;;;;;;;5839476;28;20046;-88
2024/01/06 10:57:34;;;;;;;28.23;11.43;;;;;;;;;;5839268;28;20042;-87
2024/01/06 11:00:25;;;;;;;19.92;15.05;;;;;;;;;;5839420;28;20476;-88
2024/01/06 11:03:17;;;;;;;35.35;17.35;;;;;;;;;;5839316;28;20688;-88
2024/01/06 11:06:11;;;;;;;41.55;24.75;;;;;;;;;;5823112;28;20131;-88
2024/01/06 11:09:21;;;;;;;24.17;14.35;;;;;;;;;;5839341;28;20056;-87
2024/01/06 11:12:12;;;;;;;12.90;10.90;;;;;;;;;;5839309;28;20161;-88
2024/01/06 11:15:04;;;;;;;19.55;10.43;;;;;;;;;;5839017;28;20069;-87
2024/01/06 11:17:58;;;;;;;10.27;8.75;;;;;;;;;;5846933;28;20459;-88
2024/01/06 11:21:17;;;;;;;14.35;9.63;;;;;;;;;;5839530;28;20462;-89
2024/01/06 11:24:22;;;;;;;13.13;7.93;;;;;;;;;;5839298;28;20069;-88
2024/01/06 11:27:28;;;;;;;10.50;7.35;;;;;;;;;;5840984;28;20275;-89
2024/01/06 11:30:26;;;;;;;13.13;8.85;;;;;;;;;;5838960;28;20077;-89
2024/01/06 11:33:17;;;;;;;22.25;9.80;;;;;;;;;;5838499;28;20073;-89
2024/01/06 11:36:10;;;;;;;13.60;9.15;;;;;;;;;;5855422;28;20049;-89
2024/01/06 11:39:01;;;;;;;12.88;10.05;;;;;;;;;;5839023;28;20049;-86
2024/01/06 11:41:52;;;;;;;11.57;7.55;;;;;;;;;;5840383;28;20042;-89
2024/01/06 11:44:50;;;;;;;17.98;8.30;;;;;;;;;;5838893;28;20054;-88
2024/01/06 11:47:48;;;;;;;8.85;6.50;;;;;;;;;;5838738;28;20450;-88
2024/01/06 11:50:40;;;;;;;7.82;7.07;;;;;;;;;;5839384;28;20050;-88
2024/01/06 11:53:32;;;;;;;15.82;8.85;;;;;;;;;;5838826;28;20120;-88
2024/01/06 11:56:24;;;;;;;9.55;6.10;;;;;;;;;;5838418;28;20049;-89
2024/01/06 11:59:15;;;;;;;11.25;7.18;;;;;;;;;;5839720;28;20499;-87
2024/01/06 12:02:12;;;;;;;7.28;5.88;;;;;;;;;;5838823;28;20046;-86
2024/01/06 12:05:04;;;;;;;12.43;9.63;;;;;;;;;;5839048;28;20050;-88
2024/01/06 12:08:06;;;;;;;10.13;6.63;;;;;;;;;;5840145;28;20060;-88
2024/01/06 12:11:03;;;;;;;9.20;6.30;;;;;;;;;;5840343;28;20045;-89
2024/01/06 12:13:54;;;;;;;10.85;7.38;;;;;;;;;;5838226;28;20042;-88
2024/01/06 12:16:45;;;;;;;8.40;5.10;;;;;;;;;;5838224;28;20042;-87
2024/01/06 12:19:36;;;;;;;5.57;5.00;;;;;;;;;;5854887;28;20133;-89
2024/01/06 12:22:30;;;;;;;25.17;6.80;;;;;;;;;;5839093;28;20053;-87
2024/01/06 12:25:22;;;;;;;9.05;5.68;;;;;;;;;;5840496;28;20057;-88
2024/01/06 12:28:15;;;;;;;7.00;5.32;;;;;;;;;;5839568;28;20128;-87
2024/01/06 12:31:09;;;;;;;8.18;5.35;;;;;;;;;;5840485;28;20050;-85
2024/01/06 12:34:00;;;;;;;4.93;3.90;;;;;;;;;;5856266;28;20120;-88
2024/01/06 12:36:54;;;;;;;7.07;4.80;;;;;;;;;;5838735;28;20062;-86
2024/01/06 12:39:47;;;;;;;8.30;5.97;;;;;;;;;;5838588;28;20066;-87
2024/01/06 12:42:38;;;;;;;9.85;5.43;;;;;;;;;;5838220;28;20076;-87
2024/01/06 12:45:29;;;;;;;10.52;6.10;;;;;;;;;;5839205;28;20045;-87
2024/01/06 12:48:20;;;;;;;10.68;4.82;;;;;;;;;;5826396;28;20488;-87
2024/01/06 12:51:11;;;;;;;8.80;6.32;;;;;;;;;;5842036;28;20191;-86
2024/01/06 12:54:02;;;;;;;11.35;6.03;;;;;;;;;;5858388;28;20073;-86
2024/01/06 12:56:53;;;;;;;5.35;4.85;;;;;;;;;;5842867;28;20129;-88
2024/01/06 12:59:44;;;;;;;8.60;5.88;;;;;;;;;;5843094;28;20037;-87
2024/01/06 13:02:34;;;;;;;7.13;5.28;;;;;;;;;;5844235;28;20048;-87
2024/01/06 13:05:26;;;;;;;10.02;6.97;;;;;;;;;;5842115;28;20042;-87
2024/01/06 13:08:17;;;;;;;11.93;6.65;;;;;;;;;;5843222;28;20470;-87
2024/01/06 13:11:08;;;;;;;5.55;4.97;;;;;;;;;;5841693;28;20431;-86
2024/01/06 13:13:58;;;;;;;16.52;7.35;;;;;;;;;;5843339;28;20065;-87
2024/01/06 13:16:49;;;;;;;12.75;8.52;;;;;;;;;;5842998;28;20052;-87
2024/01/06 13:19:40;;;;;;;20.50;9.25;;;;;;;;;;5825321;28;20053;-88
2024/01/06 13:22:31;;;;;;;9.00;5.05;;;;;;;;;;5841822;28;20504;-87
2024/01/06 13:25:22;;;;;;;11.63;6.30;;;;;;;;;;5825267;28;20050;-87
2024/01/06 13:28:13;;;;;;;12.55;6.28;;;;;;;;;;5843024;28;20172;-88
2024/01/06 13:31:04;;;;;;;12.98;7.85;;;;;;;;;;5842732;28;20069;-88
2024/01/06 13:33:55;;;;;;;7.63;5.93;;;;;;;;;;5841577;28;20065;-89
2024/01/06 13:36:46;;;;;;;12.18;7.03;;;;;;;;;;5841722;28;20053;-87
2024/01/06 13:39:37;;;;;;;16.48;7.32;;;;;;;;;;5824696;28;20050;-88
2024/01/06 13:42:28;;;;;;;20.60;6.88;;;;;;;;;;5841625;28;20038;-87
2024/01/06 13:45:19;;;;;;;22.58;12.88;;;;;;;;;;5825292;28;20469;-88
2024/01/06 13:48:10;;;;;;;12.95;8.65;;;;;;;;;;5840982;28;20528;-88
2024/01/06 13:51:02;;;;;;;11.45;8.35;;;;;;;;;;5842491;28;20498;-87
2024/01/06 13:53:53;;;;;;;19.67;6.68;;;;;;;;;;5842174;28;20050;-88
2024/01/06 13:56:44;;;;;;;15.43;6.80;;;;;;;;;;5824693;28;20046;-88
2024/01/06 13:59:38;;;;;;;21.00;7.30;;;;;;;;;;5842386;28;20041;-88
2024/01/06 14:02:29;;;;;;;10.25;6.43;;;;;;;;;;5857263;28;20080;-88
2024/01/06 14:05:20;;;;;;;9.60;5.63;;;;;;;;;;5842046;28;20054;-88
2024/01/06 14:08:11;;;;;;;38.50;31.13;;;;;;;;;;5842283;28;20385;-88
2024/01/06 14:11:02;;;;;;;28.02;17.40;;;;;;;;;;5841050;28;20782;-88
2024/01/06 14:13:53;;;;;;;24.67;11.88;;;;;;;;;;5842560;28;20163;-88
2024/01/06 14:16:46;;;;;;;10.93;7.88;;;;;;;;;;5841611;28;20046;-88
2024/01/06 14:19:37;;;;;;;13.35;7.80;;;;;;;;;;5840103;28;20060;-88
2024/01/06 14:22:28;;;;;;;11.73;7.82;;;;;;;;;;5840226;28;20132;-88
2024/01/06 14:25:19;;;;;;;15.73;11.30;;;;;;;;;;5840157;28;20045;-88
2024/01/06 14:28:09;;;;;;;20.95;13.32;;;;;;;;;;5840267;28;20061;-88
2024/01/06 14:31:00;;;;;;;19.67;9.93;;;;;;;;;;5841951;28;20058;-89
2024/01/06 14:33:51;;;;;;;14.68;5.88;;;;;;;;;;5843212;28;20046;-89
2024/01/06 14:36:47;;;;;;;13.77;7.72;;;;;;;;;;5839854;28;20113;-89
2024/01/06 14:39:38;;;;;;;12.88;6.53;;;;;;;;;;5841048;28;20141;-87
2024/01/06 14:42:29;;;;;;;23.85;7.80;;;;;;;;;;5839847;28;20124;-89
2024/01/06 14:45:21;;;;;;;10.68;6.50;;;;;;;;;;5839682;28;20053;-88
2024/01/06 14:48:12;;;;;;;32.65;10.75;;;;;;;;;;5839683;28;20463;-89
2024/01/06 14:51:04;;;;;;;24.60;17.88;;;;;;;;;;5840841;28;20419;-87
2024/01/06 14:53:58;;;;;;;19.02;7.70;;;;;;;;;;5841419;28;20127;-88
2024/01/06 14:56:50;;;;;;;7.18;3.13;;;;;;;;;;5823790;28;20508;-87
2024/01/06 14:59:41;;;;;;;5.60;4.15;;;;;;;;;;5857467;28;20530;-89
2024/01/06 15:02:31;;;;;;;4.53;3.55;;;;;;;;;;5841094;28;20046;-89
2024/01/06 15:05:22;;;;;;;6.43;4.32;;;;;;;;;;5843169;28;20046;-89
2024/01/06 15:08:13;;;;;;;10.38;5.60;;;;;;;;;;5841437;28;20053;-89
2024/01/06 15:11:04;;;;;;;10.65;4.65;;;;;;;;;;5841545;28;20045;-87
2024/01/06 15:13:55;;;;;;;8.25;3.92;;;;;;;;;;5840120;28;20057;-88
2024/01/06 15:16:46;;;;;;;4.45;4.05;;;;;;;;;;5840068;28;20064;-88
2024/01/06 15:19:37;;;;;;;8.45;4.90;;;;;;;;;;5823764;28;20065;-86
2024/01/06 15:22:28;;;;;;;6.85;4.38;;;;;;;;;;5839569;28;20041;-87
2024/01/06 15:25:19;;;;;;;5.65;3.50;;;;;;;;;;5839625;28;20078;-88
2024/01/06 15:28:10;;;;;;;7.53;4.10;;;;;;;;;;5839575;28;20060;-88
2024/01/06 15:31:02;;;;;;;8.27;3.00;;;;;;;;;;5838815;28;20500;-87
2024/01/06 15:33:53;;;;;;;8.10;3.40;;;;;;;;;;5840099;28;20128;-89
2024/01/06 15:36:45;;;;;;;9.57;3.80;;;;;;;;;;5838510;28;20480;-88
2024/01/06 15:39:36;;;;;;;6.32;3.85;;;;;;;;;;5840024;28;20101;-88
2024/01/06 15:42:27;;;;;;;9.02;4.93;;;;;;;;;;5839849;28;20050;-88
2024/01/06 15:45:17;;;;;;;8.80;5.50;;;;;;;;;;5838548;28;20077;-88
2024/01/06 15:48:08;;;;;;;6.40;4.70;;;;;;;;;;5839510;28;20065;-89
2024/01/06 15:51:00;;;;;;;5.22;4.40;;;;;;;;;;5822712;28;20072;-88
2024/01/06 15:53:51;;;;;;;7.95;4.78;;;;;;;;;;5861452;28;20607;-89
2024/01/06 15:56:41;;;;;;;9.45;5.05;;;;;;;;;;5861346;28;20061;-88
2024/01/06 15:59:32;;;;;;;8.05;4.53;;;;;;;;;;5860927;28;20044;-88
2024/01/06 16:02:23;;;;;;;9.05;5.00;;;;;;;;;;5860844;28;20045;-88
2024/01/06 16:05:13;;;;;;;11.35;4.82;;;;;;;;;;5862330;28;20415;-88
2024/01/06 16:08:05;;;;;;;6.68;4.63;;;;;;;;;;5860715;28;20045;-89
2024/01/06 16:10:56;;;;;;;5.45;3.63;;;;;;;;;;5862699;28;20064;-89
2024/01/06 16:13:47;;;;;;;9.65;4.43;;;;;;;;;;5860747;28;20571;-89
2024/01/06 16:16:38;;;;;;;6.60;4.60;;;;;;;;;;5860883;28;20045;-87
2024/01/06 16:19:29;;;;;;;9.02;4.47;;;;;;;;;;5861415;28;20586;-88
2024/01/06 16:22:20;;;;;;;7.20;5.30;;;;;;;;;;5860934;28;20127;-87
2024/01/06 16:25:11;;;;;;;39.53;19.50;;;;;;;;;;5860773;28;20514;-88
2024/01/06 16:28:02;;;;;;;33.00;13.07;;;;;;;;;;5862258;28;20426;-89
2024/01/06 16:30:53;;;;;;;10.38;3.75;;;;;;;;;;5862784;28;20091;-89
2024/01/06 16:33:44;;;;;;;9.55;4.82;;;;;;;;;;5860487;28;20422;-86
2024/01/06 16:36:35;;;;;;;7.28;4.55;;;;;;;;;;5860578;28;20041;-87
2024/01/06 16:39:26;;;;;;;5.35;3.75;;;;;;;;;;5862012;28;20041;-89
2024/01/06 16:42:17;;;;;;;10.32;7.07;;;;;;;;;;5862352;28;20064;-89
2024/01/06 16:45:08;;;;;;;12.25;6.53;;;;;;;;;;5862114;28;20050;-87
2024/01/06 16:47:59;;;;;;;16.80;8.85;;;;;;;;;;5862537;28;20418;-88
2024/01/06 16:50:50;;;;;;;16.77;7.47;;;;;;;;;;5861067;28;20183;-89
2024/01/06 16:53:41;;;;;;;11.05;5.95;;;;;;;;;;5860470;28;20053;-89
2024/01/06 16:56:32;;;;;;;8.45;3.80;;;;;;;;;;5860650;28;20046;-88